sensor_id;sensor_type;location;lat;lon;timestamp;pressure;altitude;pressure_sealevel;temperature;humidity
28306;BME280;7516;43.570;1.448;2022-10-16T00:00:43;99340.84;;;16.97;100.00
28306;BME280;7516;43.570;1.448;2022-10-16T00:03:11;99340.47;;;16.93;100.00
28306;BME280;7516;43.570;1.448;2022-10-16T00:05:40;99337.13;;;16.98;100.00
28306;BME280;7516;43.570;1.448;2022-10-16T00:08:08;99340.97;;;17.02;100.00
28306;BME280;7516;43.570;1.448;2022-10-16T00:10:37;99337.28;;;17.03;100.00
28306;BME280;7516;43.570;1.448;2022-10-16T00:13:05;99337.88;;;17.05;100.00
28306;BME280;7516;43.570;1.448;2022-10-16T00:15:33;99333.41;;;17.06;100.00
28306;BME280;7516;43.570;1.448;2022-10-16T00:18:02;99339.94;;;17.03;100.00
28306;BME280;7516;43.570;1.448;2022-10-16T00:20:30;99329.94;;;17.05;100.00
28306;BME280;7516;43.570;1.448;2022-10-16T00:22:59;99326.81;;;17.08;100.00
28306;BME280;7516;43.570;1.448;2022-10-16T00:25:27;99321.69;;;17.13;100.00
28306;BME280;7516;43.570;1.448;2022-10-16T00:27:55;99325.16;;;17.14;100.00
28306;BME280;7516;43.570;1.448;2022-10-16T00:30:23;99324.91;;;17.15;100.00
28306;BME280;7516;43.570;1.448;2022-10-16T00:32:52;99330.44;;;17.14;100.00
28306;BME280;7516;43.570;1.448;2022-10-16T00:35:20;99329.84;;;17.12;100.00
28306;BME280;7516;43.570;1.448;2022-10-16T00:37:47;99316.94;;;17.15;100.00
28306;BME280;7516;43.570;1.448;2022-10-16T00:40:15;99318.56;;;17.16;100.00
28306;BME280;7516;43.570;1.448;2022-10-16T00:42:43;99314.91;;;17.17;100.00
28306;BME280;7516;43.570;1.448;2022-10-16T00:45:12;99321.00;;;17.18;100.00
28306;BME280;7516;43.570;1.448;2022-10-16T00:47:42;99316.50;;;17.18;100.00
28306;BME280;7516;43.570;1.448;2022-10-16T00:50:16;99317.31;;;17.19;100.00
28306;BME280;7516;43.570;1.448;2022-10-16T00:52:48;99327.47;;;17.22;100.00
28306;BME280;7516;43.570;1.448;2022-10-16T00:55:16;99319.31;;;17.23;100.00
28306;BME280;7516;43.570;1.448;2022-10-16T00:57:44;99322.69;;;17.30;100.00
28306;BME280;7516;43.570;1.448;2022-10-16T01:00:16;99329.00;;;17.29;100.00
28306;BME280;7516;43.570;1.448;2022-10-16T01:02:44;99334.31;;;17.29;100.00
28306;BME280;7516;43.570;1.448;2022-10-16T01:05:12;99332.25;;;17.32;100.00
28306;BME280;7516;43.570;1.448;2022-10-16T01:07:47;99318.75;;;17.33;100.00
28306;BME280;7516;43.570;1.448;2022-10-16T01:10:26;99318.09;;;17.38;100.00
28306;BME280;7516;43.570;1.448;2022-10-16T01:12:59;99322.78;;;17.36;100.00
28306;BME280;7516;43.570;1.448;2022-10-16T01:15:32;99323.59;;;17.36;100.00
28306;BME280;7516;43.570;1.448;2022-10-16T01:18:04;99329.72;;;17.37;100.00
28306;BME280;7516;43.570;1.448;2022-10-16T01:20:34;99326.84;;;17.38;100.00
28306;BME280;7516;43.570;1.448;2022-10-16T01:23:15;99325.00;;;17.39;100.00
28306;BME280;7516;43.570;1.448;2022-10-16T01:25:58;99326.41;;;17.41;100.00
28306;BME280;7516;43.570;1.448;2022-10-16T01:28:34;99325.13;;;17.44;100.00
28306;BME280;7516;43.570;1.448;2022-10-16T01:31:04;99332.25;;;17.43;100.00
28306;BME280;7516;43.570;1.448;2022-10-16T01:33:36;99336.09;;;17.47;100.00
28306;BME280;7516;43.570;1.448;2022-10-16T01:36:10;99328.94;;;17.48;100.00
28306;BME280;7516;43.570;1.448;2022-10-16T01:38:40;99334.47;;;17.46;100.00
28306;BME280;7516;43.570;1.448;2022-10-16T01:41:11;99335.06;;;17.48;100.00
28306;BME280;7516;43.570;1.448;2022-10-16T01:43:45;99334.59;;;17.51;100.00
28306;BME280;7516;43.570;1.448;2022-10-16T01:46:15;99329.06;;;17.53;100.00
28306;BME280;7516;43.570;1.448;2022-10-16T01:48:44;99334.03;;;17.61;100.00
28306;BME280;7516;43.570;1.448;2022-10-16T01:51:13;99335.88;;;17.60;100.00
28306;BME280;7516;43.570;1.448;2022-10-16T01:53:43;99331.38;;;17.61;100.00
28306;BME280;7516;43.570;1.448;2022-10-16T01:56:13;99326.91;;;17.61;100.00
28306;BME280;7516;43.570;1.448;2022-10-16T01:58:46;99331.78;;;17.64;100.00
28306;BME280;7516;43.570;1.448;2022-10-16T02:01:17;99326.50;;;17.64;100.00
28306;BME280;7516;43.570;1.448;2022-10-16T02:03:48;99334.66;;;17.63;100.00
28306;BME280;7516;43.570;1.448;2022-10-16T02:06:16;99325.69;;;17.64;100.00
28306;BME280;7516;43.570;1.448;2022-10-16T02:08:44;99328.53;;;17.62;100.00
28306;BME280;7516;43.570;1.448;2022-10-16T02:11:11;99324.25;;;17.61;100.00
28306;BME280;7516;43.570;1.448;2022-10-16T02:13:43;99322.88;;;17.59;100.00
28306;BME280;7516;43.570;1.448;2022-10-16T02:16:13;99320.66;;;17.56;100.00
28306;BME280;7516;43.570;1.448;2022-10-16T02:18:42;99313.38;;;17.51;100.00
28306;BME280;7516;43.570;1.448;2022-10-16T02:21:16;99317.66;;;17.52;100.00
28306;BME280;7516;43.570;1.448;2022-10-16T02:23:51;99313.97;;;17.53;100.00
28306;BME280;7516;43.570;1.448;2022-10-16T02:26:26;99317.66;;;17.52;100.00
28306;BME280;7516;43.570;1.448;2022-10-16T02:29:00;99321.94;;;17.53;100.00
28306;BME280;7516;43.570;1.448;2022-10-16T02:31:33;99314.19;;;17.52;100.00
28306;BME280;7516;43.570;1.448;2022-10-16T02:34:03;99305.44;;;17.51;100.00
28306;BME280;7516;43.570;1.448;2022-10-16T02:36:32;99311.56;;;17.52;100.00
28306;BME280;7516;43.570;1.448;2022-10-16T02:39:03;99308.78;;;17.47;100.00
28306;BME280;7516;43.570;1.448;2022-10-16T02:41:31;99314.09;;;17.47;100.00
28306;BME280;7516;43.570;1.448;2022-10-16T02:44:01;99307.75;;;17.48;100.00
28306;BME280;7516;43.570;1.448;2022-10-16T02:46:28;99310.03;;;17.44;100.00
28306;BME280;7516;43.570;1.448;2022-10-16T02:48:56;99301.28;;;17.44;100.00
28306;BME280;7516;43.570;1.448;2022-10-16T02:51:23;99299.00;;;17.47;100.00
28306;BME280;7516;43.570;1.448;2022-10-16T02:53:51;99300.25;;;17.45;100.00
28306;BME280;7516;43.570;1.448;2022-10-16T02:56:18;99291.97;;;17.41;100.00
28306;BME280;7516;43.570;1.448;2022-10-16T02:58:46;99296.19;;;17.42;100.00
28306;BME280;7516;43.570;1.448;2022-10-16T03:01:14;99296.78;;;17.44;100.00
28306;BME280;7516;43.570;1.448;2022-10-16T03:03:43;99306.56;;;17.44;100.00
28306;BME280;7516;43.570;1.448;2022-10-16T03:06:10;99306.56;;;17.44;100.00
28306;BME280;7516;43.570;1.448;2022-10-16T03:08:38;99303.25;;;17.48;100.00
28306;BME280;7516;43.570;1.448;2022-10-16T03:11:05;99309.94;;;17.51;100.00
28306;BME280;7516;43.570;1.448;2022-10-16T03:13:33;99305.44;;;17.51;100.00
28306;BME280;7516;43.570;1.448;2022-10-16T03:16:00;99307.97;;;17.46;100.00
28306;BME280;7516;43.570;1.448;2022-10-16T03:18:29;99312.56;;;17.51;100.00
28306;BME280;7516;43.570;1.448;2022-10-16T03:20:57;99320.53;;;17.51;100.00
28306;BME280;7516;43.570;1.448;2022-10-16T03:23:24;99307.28;;;17.51;100.00
28306;BME280;7516;43.570;1.448;2022-10-16T03:25:51;99304.06;;;17.49;100.00
28306;BME280;7516;43.570;1.448;2022-10-16T03:28:20;99311.56;;;17.52;100.00
28306;BME280;7516;43.570;1.448;2022-10-16T03:30:47;99316.41;;;17.55;100.00
28306;BME280;7516;43.570;1.448;2022-10-16T03:33:15;99312.94;;;17.54;100.00
28306;BME280;7516;43.570;1.448;2022-10-16T03:35:51;99306.63;;;17.55;100.00
28306;BME280;7516;43.570;1.448;2022-10-16T03:38:20;99309.25;;;17.55;100.00
28306;BME280;7516;43.570;1.448;2022-10-16T03:40:48;99316.19;;;17.56;100.00
28306;BME280;7516;43.570;1.448;2022-10-16T03:43:15;99313.88;;;17.60;100.00
28306;BME280;7516;43.570;1.448;2022-10-16T03:45:43;99324.06;;;17.63;100.00
28306;BME280;7516;43.570;1.448;2022-10-16T03:48:10;99318.53;;;17.64;100.00
28306;BME280;7516;43.570;1.448;2022-10-16T03:50:38;99318.88;;;17.68;100.00
28306;BME280;7516;43.570;1.448;2022-10-16T03:53:07;99322.69;;;17.72;100.00
28306;BME280;7516;43.570;1.448;2022-10-16T03:55:35;99332.84;;;17.75;100.00
28306;BME280;7516;43.570;1.448;2022-10-16T03:58:02;99323.97;;;17.81;100.00
28306;BME280;7516;43.570;1.448;2022-10-16T04:00:30;99319.47;;;17.82;100.00
28306;BME280;7516;43.570;1.448;2022-10-16T04:02:57;99325.16;;;17.85;100.00
28306;BME280;7516;43.570;1.448;2022-10-16T04:05:25;99319.03;;;17.85;100.00
28306;BME280;7516;43.570;1.448;2022-10-16T04:07:53;99323.28;;;17.86;100.00
28306;BME280;7516;43.570;1.448;2022-10-16T04:10:22;99332.84;;;17.87;100.00
28306;BME280;7516;43.570;1.448;2022-10-16T04:12:49;99332.63;;;17.88;100.00
28306;BME280;7516;43.570;1.448;2022-10-16T04:15:17;99325.25;;;17.90;100.00
28306;BME280;7516;43.570;1.448;2022-10-16T04:17:45;99323.19;;;17.92;100.00
28306;BME280;7516;43.570;1.448;2022-10-16T04:20:12;99329.31;;;17.93;100.00
28306;BME280;7516;43.570;1.448;2022-10-16T04:22:40;99326.41;;;17.94;100.00
28306;BME280;7516;43.570;1.448;2022-10-16T04:25:08;99323.53;;;17.96;100.00
28306;BME280;7516;43.570;1.448;2022-10-16T04:27:37;99319.03;;;17.96;100.00
28306;BME280;7516;43.570;1.448;2022-10-16T04:30:06;99321.91;;;17.95;100.00
28306;BME280;7516;43.570;1.448;2022-10-16T04:32:33;99319.38;;;18.00;100.00
28306;BME280;7516;43.570;1.448;2022-10-16T04:35:01;99321.81;;;18.01;100.00
28306;BME280;7516;43.570;1.448;2022-10-16T04:37:29;99327.56;;;17.98;100.00
28306;BME280;7516;43.570;1.448;2022-10-16T04:39:56;99320.19;;;18.00;100.00
28306;BME280;7516;43.570;1.448;2022-10-16T04:42:24;99318.59;;;17.99;100.00
28306;BME280;7516;43.570;1.448;2022-10-16T04:44:53;99316.50;;;18.01;100.00
28306;BME280;7516;43.570;1.448;2022-10-16T04:47:20;99337.16;;;17.99;100.00
28306;BME280;7516;43.570;1.448;2022-10-16T04:49:47;99330.81;;;18.00;100.00
28306;BME280;7516;43.570;1.448;2022-10-16T04:52:15;99335.88;;;18.02;100.00
28306;BME280;7516;43.570;1.448;2022-10-16T04:54:43;99342.00;;;18.02;100.00
28306;BME280;7516;43.570;1.448;2022-10-16T04:57:11;99349.47;;;18.05;100.00
28306;BME280;7516;43.570;1.448;2022-10-16T04:59:39;99346.25;;;18.03;100.00
28306;BME280;7516;43.570;1.448;2022-10-16T05:02:07;99348.34;;;18.01;100.00
28306;BME280;7516;43.570;1.448;2022-10-16T05:04:35;99349.94;;;18.02;100.00
28306;BME280;7516;43.570;1.448;2022-10-16T05:07:02;99347.03;;;18.04;100.00
28306;BME280;7516;43.570;1.448;2022-10-16T05:09:30;99351.53;;;18.03;100.00
28306;BME280;7516;43.570;1.448;2022-10-16T05:11:57;99347.03;;;18.04;100.00
28306;BME280;7516;43.570;1.448;2022-10-16T05:14:25;99353.16;;;18.04;100.00
28306;BME280;7516;43.570;1.448;2022-10-16T05:16:52;99362.75;;;18.05;100.00
28306;BME280;7516;43.570;1.448;2022-10-16T05:19:21;99364.59;;;18.05;100.00
28306;BME280;7516;43.570;1.448;2022-10-16T05:21:49;99364.59;;;18.05;100.00
28306;BME280;7516;43.570;1.448;2022-10-16T05:24:16;99369.66;;;18.07;100.00
28306;BME280;7516;43.570;1.448;2022-10-16T05:26:44;99370.47;;;18.07;100.00
28306;BME280;7516;43.570;1.448;2022-10-16T05:29:11;99377.63;;;18.07;100.00
28306;BME280;7516;43.570;1.448;2022-10-16T05:31:39;99376.59;;;18.08;100.00
28306;BME280;7516;43.570;1.448;2022-10-16T05:34:06;99381.66;;;18.09;100.00
28306;BME280;7516;43.570;1.448;2022-10-16T05:36:35;99379.22;;;18.08;100.00
28306;BME280;7516;43.570;1.448;2022-10-16T05:39:03;99386.16;;;18.09;100.00
28306;BME280;7516;43.570;1.448;2022-10-16T05:41:30;99385.94;;;18.10;100.00
28306;BME280;7516;43.570;1.448;2022-10-16T05:43:58;99385.94;;;18.10;100.00
28306;BME280;7516;43.570;1.448;2022-10-16T05:46:25;99385.13;;;18.10;100.00
28306;BME280;7516;43.570;1.448;2022-10-16T05:48:53;99384.66;;;18.13;100.00
28306;BME280;7516;43.570;1.448;2022-10-16T05:51:20;99379.47;;;18.18;100.00
28306;BME280;7516;43.570;1.448;2022-10-16T05:53:49;99374.75;;;18.20;100.00
28306;BME280;7516;43.570;1.448;2022-10-16T05:56:17;99374.06;;;18.24;100.00
28306;BME280;7516;43.570;1.448;2022-10-16T05:58:45;99379.38;;;18.24;100.00
28306;BME280;7516;43.570;1.448;2022-10-16T06:01:14;99374.06;;;18.24;100.00
28306;BME280;7516;43.570;1.448;2022-10-16T06:03:42;99376.72;;;18.24;100.00
28306;BME280;7516;43.570;1.448;2022-10-16T06:06:10;99374.88;;;18.25;100.00
28306;BME280;7516;43.570;1.448;2022-10-16T06:08:38;99383.06;;;18.23;100.00
28306;BME280;7516;43.570;1.448;2022-10-16T06:11:09;99389.63;;;18.21;100.00
28306;BME280;7516;43.570;1.448;2022-10-16T06:13:37;99382.72;;;18.20;100.00
28306;BME280;7516;43.570;1.448;2022-10-16T06:16:05;99388.25;;;18.18;100.00
28306;BME280;7516;43.570;1.448;2022-10-16T06:18:33;99390.91;;;18.18;100.00
28306;BME280;7516;43.570;1.448;2022-10-16T06:21:07;99385.94;;;18.22;100.00
28306;BME280;7516;43.570;1.448;2022-10-16T06:23:35;99393.22;;;18.26;100.00
28306;BME280;7516;43.570;1.448;2022-10-16T06:26:09;99406.25;;;18.28;100.00
28306;BME280;7516;43.570;1.448;2022-10-16T06:28:37;99406.25;;;18.28;100.00
28306;BME280;7516;43.570;1.448;2022-10-16T06:31:06;99388.00;;;18.31;100.00
28306;BME280;7516;43.570;1.448;2022-10-16T06:33:34;99383.50;;;18.32;100.00
28306;BME280;7516;43.570;1.448;2022-10-16T06:36:03;99402.22;;;18.37;100.00
28306;BME280;7516;43.570;1.448;2022-10-16T06:38:30;99400.94;;;18.39;100.00
28306;BME280;7516;43.570;1.448;2022-10-16T06:40:58;99405.69;;;18.37;100.00
28306;BME280;7516;43.570;1.448;2022-10-16T06:43:28;99403.84;;;18.38;100.00
28306;BME280;7516;43.570;1.448;2022-10-16T06:45:58;99397.59;;;18.44;100.00
28306;BME280;7516;43.570;1.448;2022-10-16T06:48:27;99412.50;;;18.45;100.00
28306;BME280;7516;43.570;1.448;2022-10-16T06:50:59;99413.41;;;18.51;100.00
28306;BME280;7516;43.570;1.448;2022-10-16T06:53:31;99423.00;;;18.52;100.00
28306;BME280;7516;43.570;1.448;2022-10-16T06:56:07;99413.19;;;18.52;100.00
28306;BME280;7516;43.570;1.448;2022-10-16T06:58:36;99423.94;;;18.57;100.00
28306;BME280;7516;43.570;1.448;2022-10-16T07:01:04;99411.66;;;18.56;100.00
28306;BME280;7516;43.570;1.448;2022-10-16T07:03:32;99419.22;;;18.59;100.00
28306;BME280;7516;43.570;1.448;2022-10-16T07:06:02;99426.94;;;18.61;100.00
28306;BME280;7516;43.570;1.448;2022-10-16T07:08:31;99435.72;;;18.61;100.00
28306;BME280;7516;43.570;1.448;2022-10-16T07:11:00;99433.88;;;18.62;100.00
28306;BME280;7516;43.570;1.448;2022-10-16T07:13:28;99437.91;;;18.64;100.00
28306;BME280;7516;43.570;1.448;2022-10-16T07:15:56;99432.63;;;18.64;100.00
28306;BME280;7516;43.570;1.448;2022-10-16T07:18:24;99442.28;;;18.70;100.00
28306;BME280;7516;43.570;1.448;2022-10-16T07:21:02;99440.56;;;18.76;100.00
28306;BME280;7516;43.570;1.448;2022-10-16T07:23:29;99451.75;;;18.78;100.00
28306;BME280;7516;43.570;1.448;2022-10-16T07:25:57;99454.41;;;18.78;100.00
28306;BME280;7516;43.570;1.448;2022-10-16T07:28:24;99455.31;;;18.84;100.00
28306;BME280;7516;43.570;1.448;2022-10-16T07:30:52;99452.44;;;18.85;100.00
28306;BME280;7516;43.570;1.448;2022-10-16T07:33:21;99465.25;;;18.88;100.00
28306;BME280;7516;43.570;1.448;2022-10-16T07:35:49;99456.81;;;18.91;100.00
28306;BME280;7516;43.570;1.448;2022-10-16T07:38:17;99461.66;;;18.94;100.00
28306;BME280;7516;43.570;1.448;2022-10-16T07:40:45;99463.06;;;18.97;100.00
28306;BME280;7516;43.570;1.448;2022-10-16T07:43:13;99475.63;;;19.01;100.00
28306;BME280;7516;43.570;1.448;2022-10-16T07:45:47;99476.00;;;19.05;100.00
28306;BME280;7516;43.570;1.448;2022-10-16T07:48:15;99471.25;;;19.07;100.00
28306;BME280;7516;43.570;1.448;2022-10-16T07:50:45;99473.78;;;19.13;100.00
28306;BME280;7516;43.570;1.448;2022-10-16T07:53:13;99483.25;;;19.21;100.00
28306;BME280;7516;43.570;1.448;2022-10-16T07:55:41;99490.03;;;19.29;100.00
28306;BME280;7516;43.570;1.448;2022-10-16T07:58:08;99476.63;;;19.35;100.00
28306;BME280;7516;43.570;1.448;2022-10-16T08:00:37;99483.09;;;19.39;100.00
28306;BME280;7516;43.570;1.448;2022-10-16T08:03:04;99489.78;;;19.42;100.00
28306;BME280;7516;43.570;1.448;2022-10-16T08:05:32;99483.66;;;19.41;100.00
28306;BME280;7516;43.570;1.448;2022-10-16T08:08:02;99494.88;;;19.43;100.00
28306;BME280;7516;43.570;1.448;2022-10-16T08:10:30;99486.91;;;19.43;100.00
28306;BME280;7516;43.570;1.448;2022-10-16T08:12:57;99484.72;;;19.40;100.00
28306;BME280;7516;43.570;1.448;2022-10-16T08:15:25;99503.31;;;19.40;100.00
28306;BME280;7516;43.570;1.448;2022-10-16T08:17:57;99496.47;;;19.44;100.00
28306;BME280;7516;43.570;1.448;2022-10-16T08:20:25;99496.84;;;19.48;100.00
28306;BME280;7516;43.570;1.448;2022-10-16T08:22:54;99495.09;;;19.53;100.00
28306;BME280;7516;43.570;1.448;2022-10-16T08:25:24;99500.75;;;19.57;100.00
28306;BME280;7516;43.570;1.448;2022-10-16T08:27:52;99508.00;;;19.62;100.00
28306;BME280;7516;43.570;1.448;2022-10-16T08:30:20;99505.69;;;19.65;100.00
28306;BME280;7516;43.570;1.448;2022-10-16T08:32:48;99499.69;;;19.70;100.00
28306;BME280;7516;43.570;1.448;2022-10-16T08:35:16;99498.97;;;19.74;100.00
28306;BME280;7516;43.570;1.448;2022-10-16T08:37:44;99511.00;;;19.77;100.00
28306;BME280;7516;43.570;1.448;2022-10-16T08:40:18;99496.16;;;19.81;100.00
28306;BME280;7516;43.570;1.448;2022-10-16T08:42:59;99518.09;;;19.88;100.00
28306;BME280;7516;43.570;1.448;2022-10-16T08:45:42;99517.16;;;19.94;100.00
28306;BME280;7516;43.570;1.448;2022-10-16T08:48:20;99526.03;;;20.00;100.00
28306;BME280;7516;43.570;1.448;2022-10-16T08:50:51;99514.94;;;20.03;100.00
28306;BME280;7516;43.570;1.448;2022-10-16T08:53:22;99516.88;;;20.07;100.00
28306;BME280;7516;43.570;1.448;2022-10-16T08:55:53;99513.00;;;20.15;100.00
28306;BME280;7516;43.570;1.448;2022-10-16T08:58:22;99519.25;;;20.20;100.00
28306;BME280;7516;43.570;1.448;2022-10-16T09:00:55;99528.84;;;20.21;100.00
28306;BME280;7516;43.570;1.448;2022-10-16T09:03:36;99519.09;;;20.27;100.00
28306;BME280;7516;43.570;1.448;2022-10-16T09:06:17;99521.16;;;20.37;100.00
28306;BME280;7516;43.570;1.448;2022-10-16T09:09:00;99526.00;;;20.40;100.00
28306;BME280;7516;43.570;1.448;2022-10-16T09:11:38;99519.47;;;20.47;100.00
28306;BME280;7516;43.570;1.448;2022-10-16T09:14:20;99522.22;;;20.52;100.00
28306;BME280;7516;43.570;1.448;2022-10-16T09:16:55;99514.88;;;20.59;100.00
28306;BME280;7516;43.570;1.448;2022-10-16T09:19:31;99525.38;;;20.66;100.00
28306;BME280;7516;43.570;1.448;2022-10-16T09:22:08;99522.78;;;20.71;100.00
28306;BME280;7516;43.570;1.448;2022-10-16T09:24:37;99511.47;;;20.81;100.00
28306;BME280;7516;43.570;1.448;2022-10-16T09:27:06;99514.19;;;20.86;100.00
28306;BME280;7516;43.570;1.448;2022-10-16T09:29:36;99518.25;;;20.88;100.00
28306;BME280;7516;43.570;1.448;2022-10-16T09:32:11;99519.94;;;20.94;99.88
28306;BME280;7516;43.570;1.448;2022-10-16T09:34:43;99515.25;;;21.01;98.69
28306;BME280;7516;43.570;1.448;2022-10-16T09:37:14;99521.47;;;21.07;98.13
28306;BME280;7516;43.570;1.448;2022-10-16T09:39:48;99518.84;;;21.12;97.61
28306;BME280;7516;43.570;1.448;2022-10-16T09:42:17;99510.13;;;21.17;98.19
28306;BME280;7516;43.570;1.448;2022-10-16T09:44:50;99505.44;;;21.24;97.02
28306;BME280;7516;43.570;1.448;2022-10-16T09:47:22;99501.31;;;21.33;96.13
28306;BME280;7516;43.570;1.448;2022-10-16T09:49:52;99492.88;;;21.41;95.41
28306;BME280;7516;43.570;1.448;2022-10-16T09:52:20;99512.16;;;21.48;94.94
28306;BME280;7516;43.570;1.448;2022-10-16T09:54:52;99505.03;;;21.54;92.91
28306;BME280;7516;43.570;1.448;2022-10-16T09:57:20;99513.91;;;21.59;92.71
28306;BME280;7516;43.570;1.448;2022-10-16T09:59:51;99518.75;;;21.62;92.79
28306;BME280;7516;43.570;1.448;2022-10-16T10:02:23;99515.88;;;21.69;92.64
28306;BME280;7516;43.570;1.448;2022-10-16T10:04:54;99518.31;;;21.70;92.31
28306;BME280;7516;43.570;1.448;2022-10-16T10:07:26;99524.69;;;21.69;92.96
28306;BME280;7516;43.570;1.448;2022-10-16T10:09:54;99513.63;;;21.83;91.96
28306;BME280;7516;43.570;1.448;2022-10-16T10:12:25;99518.22;;;21.87;91.48
28306;BME280;7516;43.570;1.448;2022-10-16T10:14:56;99519.06;;;21.93;89.57
28306;BME280;7516;43.570;1.448;2022-10-16T10:17:25;99511.63;;;21.95;89.37
28306;BME280;7516;43.570;1.448;2022-10-16T10:19:55;99502.63;;;22.01;88.07
28306;BME280;7516;43.570;1.448;2022-10-16T10:22:31;99513.66;;;22.09;88.14
28306;BME280;7516;43.570;1.448;2022-10-16T10:25:23;99511.88;;;22.15;88.85
28306;BME280;7516;43.570;1.448;2022-10-16T10:30:59;99514.91;;;22.24;86.71
28306;BME280;7516;43.570;1.448;2022-10-16T10:33:35;99497.53;;;22.26;86.04
28306;BME280;7516;43.570;1.448;2022-10-16T10:36:15;99506.13;;;22.28;86.75
28306;BME280;7516;43.570;1.448;2022-10-16T10:38:50;99502.16;;;22.36;86.57
28306;BME280;7516;43.570;1.448;2022-10-16T10:41:54;99502.47;;;22.39;85.34
28306;BME280;7516;43.570;1.448;2022-10-16T10:44:37;99495.56;;;22.43;83.47
28306;BME280;7516;43.570;1.448;2022-10-16T10:47:16;99503.56;;;22.43;83.09
28306;BME280;7516;43.570;1.448;2022-10-16T10:49:57;99511.66;;;22.53;82.91
28306;BME280;7516;43.570;1.448;2022-10-16T10:52:43;99497.25;;;22.55;82.75
28306;BME280;7516;43.570;1.448;2022-10-16T10:55:23;99494.88;;;22.58;83.03
28306;BME280;7516;43.570;1.448;2022-10-16T10:58:23;99493.34;;;22.67;83.63
28306;BME280;7516;43.570;1.448;2022-10-16T11:01:00;99497.34;;;22.70;82.08
28306;BME280;7516;43.570;1.448;2022-10-16T11:06:33;99495.03;;;22.78;81.77
28306;BME280;7516;43.570;1.448;2022-10-16T11:09:07;99496.16;;;22.82;81.34
28306;BME280;7516;43.570;1.448;2022-10-16T11:11:40;99494.31;;;22.88;80.97
28306;BME280;7516;43.570;1.448;2022-10-16T11:14:14;99483.38;;;22.89;80.83
28306;BME280;7516;43.570;1.448;2022-10-16T11:16:45;99500.75;;;22.92;80.60
28306;BME280;7516;43.570;1.448;2022-10-16T11:19:25;99502.94;;;22.95;79.54
28306;BME280;7516;43.570;1.448;2022-10-16T11:22:00;99499.16;;;22.96;79.54
28306;BME280;7516;43.570;1.448;2022-10-16T11:24:36;99488.28;;;23.03;79.04
28306;BME280;7516;43.570;1.448;2022-10-16T11:27:08;99487.47;;;23.07;78.51
28306;BME280;7516;43.570;1.448;2022-10-16T11:29:42;99491.75;;;23.08;78.32
28306;BME280;7516;43.570;1.448;2022-10-16T11:32:19;99497.44;;;23.17;77.03
28306;BME280;7516;43.570;1.448;2022-10-16T11:34:51;99491.03;;;23.23;76.38
28306;BME280;7516;43.570;1.448;2022-10-16T11:37:25;99485.69;;;23.23;76.10
28306;BME280;7516;43.570;1.448;2022-10-16T11:39:58;99473.72;;;23.31;75.50
28306;BME280;7516;43.570;1.448;2022-10-16T11:42:33;99477.44;;;23.35;74.43
28306;BME280;7516;43.570;1.448;2022-10-16T11:45:13;99476.69;;;23.39;74.51
28306;BME280;7516;43.570;1.448;2022-10-16T11:47:54;99481.53;;;23.47;74.75
28306;BME280;7516;43.570;1.448;2022-10-16T11:50:30;99468.44;;;23.51;74.82
28306;BME280;7516;43.570;1.448;2022-10-16T11:53:03;99456.72;;;23.57;75.48
28306;BME280;7516;43.570;1.448;2022-10-16T11:55:35;99450.81;;;23.55;75.60
28306;BME280;7516;43.570;1.448;2022-10-16T11:58:06;99437.97;;;23.57;74.97
28306;BME280;7516;43.570;1.448;2022-10-16T12:00:42;99440.91;;;23.55;74.71
28306;BME280;7516;43.570;1.448;2022-10-16T12:03:17;99426.22;;;23.63;74.65
28306;BME280;7516;43.570;1.448;2022-10-16T12:06:21;99428.63;;;23.70;73.13
28306;BME280;7516;43.570;1.448;2022-10-16T12:08:50;99421.69;;;23.74;72.18
28306;BME280;7516;43.570;1.448;2022-10-16T12:11:31;99422.47;;;23.69;72.85
28306;BME280;7516;43.570;1.448;2022-10-16T12:14:16;99423.28;;;23.70;70.80
28306;BME280;7516;43.570;1.448;2022-10-16T12:16:53;99419.78;;;23.69;71.38
28306;BME280;7516;43.570;1.448;2022-10-16T12:19:22;99416.03;;;23.75;70.28
28306;BME280;7516;43.570;1.448;2022-10-16T12:21:54;99411.22;;;23.77;70.88
28306;BME280;7516;43.570;1.448;2022-10-16T12:24:33;99401.63;;;23.81;70.93
28306;BME280;7516;43.570;1.448;2022-10-16T12:27:01;99401.63;;;23.81;70.38
28306;BME280;7516;43.570;1.448;2022-10-16T12:29:35;99402.16;;;23.88;69.71
28306;BME280;7516;43.570;1.448;2022-10-16T12:32:05;99398.41;;;23.89;69.66
28306;BME280;7516;43.570;1.448;2022-10-16T12:34:48;99412.34;;;23.91;69.14
28306;BME280;7516;43.570;1.448;2022-10-16T12:37:22;99413.41;;;23.95;68.90
28306;BME280;7516;43.570;1.448;2022-10-16T12:39:52;99423.59;;;23.98;68.67
28306;BME280;7516;43.570;1.448;2022-10-16T12:42:23;99428.94;;;24.09;66.97
28306;BME280;7516;43.570;1.448;2022-10-16T12:44:57;99423.31;;;24.10;65.48
28306;BME280;7516;43.570;1.448;2022-10-16T12:47:46;99407.78;;;24.12;nan
28306;BME280;7516;43.570;1.448;2022-10-16T12:50:38;99409.66;;;24.12;65.64
28306;BME280;7516;43.570;1.448;2022-10-16T12:53:20;99423.03;;;24.12;65.51
28306;BME280;7516;43.570;1.448;2022-10-16T12:55:56;99413.94;;;24.13;65.19
28306;BME280;7516;43.570;1.448;2022-10-16T12:58:49;99415.00;;;24.12;66.96
28306;BME280;7516;43.570;1.448;2022-10-16T13:01:27;99423.84;;;24.12;66.56
28306;BME280;7516;43.570;1.448;2022-10-16T13:04:13;99415.53;;;24.14;67.41
28306;BME280;7516;43.570;1.448;2022-10-16T13:06:49;99430.03;;;24.23;67.71
28306;BME280;7516;43.570;1.448;2022-10-16T13:09:30;99424.16;;;24.26;67.34
28306;BME280;7516;43.570;1.448;2022-10-16T13:12:16;99414.75;;;24.28;68.44
28306;BME280;7516;43.570;1.448;2022-10-16T13:15:08;99406.47;;;24.25;68.34
28306;BME280;7516;43.570;1.448;2022-10-16T13:17:46;99425.78;;;24.27;67.53
28306;BME280;7516;43.570;1.448;2022-10-16T13:20:25;99427.91;;;24.25;67.67
28306;BME280;7516;43.570;1.448;2022-10-16T13:23:03;99427.63;;;24.21;66.83
28306;BME280;7516;43.570;1.448;2022-10-16T13:25:45;99429.50;;;24.26;67.15
28306;BME280;7516;43.570;1.448;2022-10-16T13:28:27;99440.22;;;24.26;66.96
28306;BME280;7516;43.570;1.448;2022-10-16T13:30:57;99434.88;;;24.26;66.51